createdAt,value
2023-04-27T00:02:25.859Z,8.24
2023-04-27T00:04:56.554Z,8.24
2023-04-27T00:07:29.201Z,8.24
2023-04-27T00:09:59.314Z,8.22
2023-04-27T00:12:29.210Z,8.17
2023-04-27T00:14:59.308Z,8.14
2023-04-27T00:17:29.308Z,8.09
2023-04-27T00:19:59.220Z,8.05
2023-04-27T00:22:32.017Z,7.99
2023-04-27T00:25:01.973Z,7.94
2023-04-27T00:27:31.869Z,7.89
2023-04-27T00:30:01.994Z,7.86
2023-04-27T00:32:31.861Z,7.81
2023-04-27T00:35:01.859Z,7.74
2023-04-27T00:37:34.384Z,7.67
2023-04-27T00:40:04.488Z,7.62
2023-04-27T00:42:34.436Z,7.60
2023-04-27T00:45:05.478Z,7.58
2023-04-27T00:47:36.070Z,7.56
2023-04-27T00:50:08.848Z,7.54
2023-04-27T00:52:41.748Z,7.50
2023-04-27T00:55:12.248Z,7.46
2023-04-27T00:57:42.317Z,7.41
2023-04-27T01:00:13.575Z,7.33
2023-04-27T01:02:44.443Z,7.31
2023-04-27T01:05:15.298Z,7.29
2023-04-27T01:07:48.161Z,7.26
2023-04-27T01:10:18.280Z,7.24
2023-04-27T01:12:48.764Z,7.23
2023-04-27T01:15:19.091Z,7.22
2023-04-27T01:17:49.292Z,7.20
2023-04-27T01:20:20.132Z,7.20
2023-04-27T01:22:52.662Z,7.18
2023-04-27T01:25:25.463Z,7.15
2023-04-27T01:27:55.455Z,7.12
2023-04-27T01:30:25.579Z,7.09
2023-04-27T01:32:58.144Z,7.07
2023-04-27T01:35:28.489Z,7.03
2023-04-27T01:38:00.344Z,7.00
2023-04-27T01:40:33.009Z,6.97
2023-04-27T01:43:03.498Z,6.93
2023-04-27T01:45:36.058Z,6.89
2023-04-27T01:48:06.544Z,6.86
2023-04-27T01:50:36.607Z,6.82
2023-04-27T01:53:06.458Z,6.77
2023-04-27T01:55:39.048Z,6.76
2023-04-27T01:58:08.921Z,6.72
2023-04-27T02:00:38.680Z,6.70
2023-04-27T02:03:09.031Z,6.68
2023-04-27T02:05:38.988Z,6.68
2023-04-27T02:08:09.158Z,6.65
2023-04-27T02:10:41.829Z,6.61
2023-04-27T02:13:12.727Z,6.57
2023-04-27T02:15:42.832Z,6.54
2023-04-27T02:18:13.026Z,6.51
2023-04-27T02:20:42.895Z,6.46
2023-04-27T02:23:13.215Z,6.44
2023-04-27T02:25:47.178Z,6.43
2023-04-27T02:28:17.341Z,6.44
2023-04-27T02:30:48.304Z,6.44
2023-04-27T02:33:18.464Z,6.44
2023-04-27T02:35:48.363Z,6.43
2023-04-27T02:38:18.456Z,6.42
2023-04-27T02:40:56.917Z,6.37
2023-04-27T02:43:26.974Z,6.36
2023-04-27T02:45:56.792Z,6.32
2023-04-27T02:48:27.224Z,6.28
2023-04-27T02:50:57.848Z,6.24
2023-04-27T02:53:28.052Z,6.20
2023-04-27T02:56:01.813Z,6.18
2023-04-27T02:58:32.260Z,6.14
2023-04-27T03:01:04.027Z,6.12
2023-04-27T03:03:33.962Z,6.08
2023-04-27T03:06:04.181Z,6.06
2023-04-27T03:08:34.147Z,6.03
2023-04-27T03:11:06.642Z,6.01
2023-04-27T03:13:42.164Z,5.98
2023-04-27T03:16:13.940Z,5.94
2023-04-27T03:18:44.023Z,5.92
2023-04-27T03:21:17.036Z,5.87
2023-04-27T03:23:47.084Z,5.83
2023-04-27T03:26:20.702Z,5.80
2023-04-27T03:28:50.729Z,5.79
2023-04-27T03:31:20.743Z,5.77
2023-04-27T03:33:50.900Z,5.78
2023-04-27T03:36:21.183Z,5.78
2023-04-27T03:38:51.045Z,5.79
2023-04-27T03:41:23.776Z,5.80
2023-04-27T03:43:53.773Z,5.81
2023-04-27T03:46:23.729Z,5.82
2023-04-27T03:48:53.562Z,5.80
2023-04-27T03:51:23.636Z,5.77
2023-04-27T03:53:53.569Z,5.75
2023-04-27T03:56:26.302Z,5.72
2023-04-27T03:58:56.117Z,5.68
2023-04-27T04:01:26.520Z,5.66
2023-04-27T04:03:56.764Z,5.63
2023-04-27T04:06:28.264Z,5.60
2023-04-27T04:08:58.765Z,5.57
2023-04-27T04:11:31.425Z,5.56
2023-04-27T04:14:01.366Z,5.53
2023-04-27T04:16:31.347Z,5.50
2023-04-27T04:19:01.365Z,5.48
2023-04-27T04:21:32.230Z,5.44
2023-04-27T04:24:02.331Z,5.42
2023-04-27T04:26:35.701Z,5.41
2023-04-27T04:29:05.680Z,5.39
2023-04-27T04:31:36.799Z,5.39
2023-04-27T04:34:10.465Z,5.37
2023-04-27T04:36:40.777Z,5.35
2023-04-27T04:39:10.936Z,5.33
2023-04-27T04:41:43.616Z,5.29
2023-04-27T04:44:13.736Z,5.29
2023-04-27T04:46:43.663Z,5.31
2023-04-27T04:49:14.000Z,5.33
2023-04-27T04:51:45.875Z,5.35
2023-04-27T04:54:16.068Z,5.37
2023-04-27T04:56:51.485Z,5.37
2023-04-27T04:59:21.474Z,5.36
2023-04-27T05:01:51.483Z,5.36
2023-04-27T05:04:21.573Z,5.33
2023-04-27T05:06:51.514Z,5.33
2023-04-27T05:09:21.523Z,5.31
2023-04-27T05:11:54.154Z,5.29
2023-04-27T05:14:24.116Z,5.29
2023-04-27T05:16:53.973Z,5.29
2023-04-27T05:19:25.000Z,5.27
2023-04-27T05:21:54.899Z,5.28
2023-04-27T05:24:24.829Z,5.23
2023-04-27T05:26:57.506Z,5.20
2023-04-27T05:29:27.521Z,5.18
2023-04-27T05:31:57.595Z,5.23
2023-04-27T05:34:27.609Z,5.27
2023-04-27T05:36:57.575Z,5.24
2023-04-27T05:39:28.098Z,5.24
2023-04-27T05:42:00.495Z,5.25
2023-04-27T05:44:30.350Z,5.24
2023-04-27T05:47:00.209Z,5.27
2023-04-27T05:49:30.095Z,5.30
2023-04-27T05:51:59.989Z,5.35
2023-04-27T05:54:30.333Z,5.39
2023-04-27T05:57:02.822Z,5.45
2023-04-27T05:59:33.014Z,5.47
2023-04-27T06:02:03.196Z,5.53
2023-04-27T06:04:33.543Z,5.59
2023-04-27T06:07:04.302Z,5.65
2023-04-27T06:09:34.460Z,5.71
2023-04-27T06:12:07.514Z,5.81
2023-04-27T06:14:39.459Z,5.93
2023-04-27T06:17:09.362Z,6.01
2023-04-27T06:19:39.561Z,6.11
2023-04-27T06:22:09.454Z,6.23
2023-04-27T06:24:39.455Z,6.39
2023-04-27T06:27:12.034Z,6.65
2023-04-27T06:29:42.084Z,6.94
2023-04-27T06:32:12.064Z,7.26
2023-04-27T06:34:42.103Z,7.60
2023-04-27T06:37:12.011Z,7.96
2023-04-27T06:39:42.432Z,8.26
2023-04-27T06:42:15.426Z,8.50
2023-04-27T06:44:45.735Z,8.74
2023-04-27T06:47:15.757Z,8.84
2023-04-27T06:49:46.958Z,9.16
2023-04-27T06:52:17.984Z,9.40
2023-04-27T06:54:47.910Z,9.48
2023-04-27T06:57:20.574Z,9.68
2023-04-27T06:59:50.596Z,9.98
2023-04-27T07:02:20.699Z,10.24
2023-04-27T07:04:51.565Z,10.48
2023-04-27T07:07:21.419Z,10.79
2023-04-27T07:09:51.352Z,10.94
2023-04-27T07:12:23.805Z,11.20
2023-04-27T07:14:53.705Z,11.48
2023-04-27T07:17:23.747Z,11.64
2023-04-27T07:19:53.828Z,11.84
2023-04-27T07:22:24.116Z,11.95
2023-04-27T07:24:54.187Z,12.10
2023-04-27T07:27:26.781Z,12.13
2023-04-27T07:29:56.895Z,12.30
2023-04-27T07:32:27.076Z,12.60
2023-04-27T07:34:58.932Z,12.92
2023-04-27T07:37:29.077Z,13.01
2023-04-27T07:39:59.840Z,13.06
2023-04-27T07:42:32.430Z,13.16
2023-04-27T07:45:02.601Z,13.27
2023-04-27T07:47:32.626Z,13.54
2023-04-27T07:50:02.727Z,13.68
2023-04-27T07:52:32.728Z,13.75
2023-04-27T07:55:04.054Z,13.57
2023-04-27T07:57:36.679Z,13.74
2023-04-27T08:00:11.534Z,14.05
2023-04-27T08:02:41.617Z,14.16
2023-04-27T08:05:12.562Z,14.28
2023-04-27T08:07:44.949Z,14.48
2023-04-27T08:10:15.524Z,14.79
2023-04-27T08:12:48.146Z,14.94
2023-04-27T08:15:18.290Z,15.07
2023-04-27T08:17:48.580Z,15.31
2023-04-27T08:20:18.538Z,15.17
2023-04-27T08:22:48.391Z,14.95
2023-04-27T08:25:18.331Z,15.09
2023-04-27T08:27:50.926Z,15.24
2023-04-27T08:30:21.476Z,15.45
2023-04-27T08:32:51.957Z,15.76
2023-04-27T08:35:22.148Z,15.54
2023-04-27T08:37:52.942Z,15.34
2023-04-27T08:40:25.050Z,15.59
2023-04-27T08:43:02.412Z,15.93
2023-04-27T08:45:32.254Z,16.20
2023-04-27T08:48:04.016Z,16.27
2023-04-27T08:50:34.059Z,16.23
2023-04-27T08:53:03.849Z,16.23
2023-04-27T08:55:34.107Z,16.42
2023-04-27T08:58:06.857Z,16.49
2023-04-27T09:00:42.873Z,16.62
2023-04-27T09:03:22.969Z,16.54
2023-04-27T09:06:04.491Z,16.68
2023-04-27T09:08:46.565Z,16.73
2023-04-27T09:11:17.316Z,16.94
2023-04-27T09:13:49.873Z,16.92
2023-04-27T09:16:26.774Z,16.87
2023-04-27T09:18:57.049Z,17.08
2023-04-27T09:21:28.207Z,17.18
2023-04-27T09:23:58.687Z,17.28
2023-04-27T09:26:32.067Z,17.20
2023-04-27T09:29:04.611Z,17.06
2023-04-27T09:31:35.688Z,17.16
2023-04-27T09:34:07.201Z,17.39
2023-04-27T09:36:37.589Z,17.52
2023-04-27T09:39:07.739Z,17.49
2023-04-27T09:41:38.400Z,17.51
2023-04-27T09:44:11.488Z,17.54
2023-04-27T09:46:41.768Z,17.20
2023-04-27T09:49:12.304Z,16.94
2023-04-27T09:51:42.616Z,17.15
2023-04-27T09:54:16.392Z,17.46
2023-04-27T09:56:57.859Z,17.61
2023-04-27T09:59:44.665Z,17.69
2023-04-27T10:02:25.158Z,17.95
2023-04-27T10:05:17.449Z,17.92
2023-04-27T10:07:49.050Z,18.15
2023-04-27T10:10:21.396Z,18.18
2023-04-27T10:13:00.752Z,18.18
2023-04-27T10:15:33.569Z,18.22
2023-04-27T10:18:08.974Z,18.31
2023-04-27T10:20:41.145Z,18.34
2023-04-27T10:23:11.251Z,18.26
2023-04-27T10:25:43.310Z,18.19
2023-04-27T10:28:19.313Z,18.18
2023-04-27T10:30:52.217Z,18.24
2023-04-27T10:33:25.212Z,18.07
2023-04-27T10:36:00.573Z,17.90
2023-04-27T10:38:33.330Z,17.66
2023-04-27T10:41:05.783Z,17.59
2023-04-27T10:43:38.076Z,17.71
2023-04-27T10:46:15.660Z,17.84
2023-04-27T10:48:46.815Z,18.01
2023-04-27T10:51:19.529Z,18.22
2023-04-27T10:53:55.086Z,18.28
2023-04-27T10:56:25.126Z,18.38
2023-04-27T10:58:55.117Z,18.32
2023-04-27T11:01:30.778Z,18.46
2023-04-27T11:04:01.783Z,18.55
2023-04-27T11:06:33.473Z,18.68
2023-04-27T11:09:04.706Z,18.52
2023-04-27T11:11:34.620Z,18.72
2023-04-27T11:14:04.674Z,18.79
2023-04-27T11:16:37.861Z,18.94
2023-04-27T11:19:08.237Z,19.11
2023-04-27T11:21:38.217Z,19.13
2023-04-27T11:24:10.546Z,18.92
2023-04-27T11:26:41.493Z,18.94
2023-04-27T11:29:14.536Z,19.09
2023-04-27T11:31:49.842Z,19.02
2023-04-27T11:34:22.863Z,19.03
2023-04-27T11:37:17.350Z,19.07
2023-04-27T11:39:48.851Z,19.31
2023-04-27T11:42:20.905Z,19.45
2023-04-27T11:44:56.109Z,19.35
2023-04-27T11:47:31.189Z,19.42
2023-04-27T11:50:02.526Z,19.36
2023-04-27T11:52:32.985Z,19.11
2023-04-27T11:55:04.241Z,19.11
2023-04-27T11:57:36.124Z,19.28
2023-04-27T12:00:11.655Z,19.43
2023-04-27T12:02:45.725Z,19.59
2023-04-27T12:05:16.639Z,19.69
2023-04-27T12:07:46.896Z,19.82
2023-04-27T12:10:16.735Z,19.98
2023-04-27T12:12:47.059Z,20.06
2023-04-27T12:15:17.174Z,20.11
2023-04-27T12:17:50.190Z,20.24
2023-04-27T12:20:20.101Z,20.36
2023-04-27T12:22:50.417Z,20.40
2023-04-27T12:25:21.510Z,20.35
2023-04-27T12:27:51.345Z,20.05
2023-04-27T12:30:21.706Z,20.03
2023-04-27T12:32:56.974Z,19.91
2023-04-27T12:35:26.867Z,19.93
2023-04-27T12:37:56.689Z,19.98
2023-04-27T12:40:26.618Z,20.23
2023-04-27T12:42:57.140Z,20.48
2023-04-27T12:45:28.520Z,20.55
2023-04-27T12:48:03.520Z,20.64
2023-04-27T12:50:34.815Z,20.86
2023-04-27T12:53:07.833Z,20.71
2023-04-27T12:55:37.805Z,20.45
2023-04-27T12:58:08.155Z,20.50
2023-04-27T13:00:38.713Z,20.40
2023-04-27T13:03:12.282Z,20.49
2023-04-27T13:05:42.500Z,20.72
2023-04-27T13:08:12.345Z,20.58
2023-04-27T13:10:45.167Z,20.92
2023-04-27T13:13:15.098Z,21.02
2023-04-27T13:15:44.952Z,20.97
2023-04-27T13:18:17.540Z,21.09
2023-04-27T13:20:48.171Z,21.15
2023-04-27T13:23:17.966Z,21.15
2023-04-27T13:25:47.907Z,21.27
2023-04-27T13:28:17.755Z,21.43
2023-04-27T13:30:49.016Z,21.53
2023-04-27T13:33:23.652Z,21.56
2023-04-27T13:35:53.834Z,21.71
2023-04-27T13:38:23.659Z,21.86
2023-04-27T13:40:53.585Z,21.53
2023-04-27T13:43:23.334Z,21.22
2023-04-27T13:45:55.410Z,21.13
2023-04-27T13:48:27.982Z,21.36
2023-04-27T13:50:58.369Z,21.62
2023-04-27T13:53:28.461Z,21.79
2023-04-27T13:55:59.511Z,21.73
2023-04-27T13:58:31.090Z,21.31
2023-04-27T14:01:01.788Z,21.32
2023-04-27T14:03:34.428Z,21.51
2023-04-27T14:06:04.492Z,21.59
2023-04-27T14:08:34.659Z,21.68
2023-04-27T14:11:06.016Z,21.54
2023-04-27T14:13:35.952Z,21.37
2023-04-27T14:16:06.766Z,21.39
2023-04-27T14:18:39.567Z,21.37
2023-04-27T14:21:09.590Z,21.48
2023-04-27T14:23:39.578Z,21.43
2023-04-27T14:26:10.695Z,21.42
2023-04-27T14:28:40.926Z,21.53
2023-04-27T14:31:10.931Z,21.71
2023-04-27T14:33:43.884Z,21.72
2023-04-27T14:36:13.970Z,21.67
2023-04-27T14:38:43.802Z,21.62
2023-04-27T14:41:13.781Z,21.57
2023-04-27T14:43:45.007Z,21.50
2023-04-27T14:46:20.848Z,21.55
2023-04-27T14:48:53.922Z,21.56
2023-04-27T14:51:24.022Z,21.39
2023-04-27T14:53:53.978Z,21.38
2023-04-27T14:56:24.478Z,21.32
2023-04-27T14:58:55.508Z,21.32
2023-04-27T15:01:25.938Z,21.36
2023-04-27T15:03:59.092Z,21.27
2023-04-27T15:06:30.585Z,21.29
2023-04-27T15:09:00.820Z,21.29
2023-04-27T15:11:30.770Z,21.33
2023-04-27T15:14:00.651Z,21.27
2023-04-27T15:16:30.842Z,21.25
2023-04-27T15:19:03.786Z,21.19
2023-04-27T15:21:34.435Z,21.16
2023-04-27T15:24:04.508Z,20.97
2023-04-27T15:26:37.219Z,20.85
2023-04-27T15:29:07.464Z,20.94
2023-04-27T15:31:37.784Z,21.02
2023-04-27T15:34:10.384Z,21.02
2023-04-27T15:36:40.271Z,21.07
2023-04-27T15:39:10.369Z,21.06
2023-04-27T15:41:40.973Z,21.10
2023-04-27T15:44:10.985Z,21.04
2023-04-27T15:46:40.975Z,20.97
2023-04-27T15:49:14.354Z,20.83
2023-04-27T15:51:44.578Z,20.79
2023-04-27T15:54:14.481Z,20.75
2023-04-27T15:56:44.370Z,20.65
2023-04-27T15:59:14.662Z,20.36
2023-04-27T16:01:44.677Z,20.08
2023-04-27T16:04:17.274Z,20.17
2023-04-27T16:06:47.254Z,20.19
2023-04-27T16:09:17.469Z,20.20
2023-04-27T16:11:47.949Z,20.27
2023-04-27T16:14:17.842Z,20.33
2023-04-27T16:16:48.305Z,20.32
2023-04-27T16:19:21.436Z,20.29
2023-04-27T16:21:51.337Z,20.26
2023-04-27T16:24:21.989Z,20.12
2023-04-27T16:26:51.907Z,20.02
2023-04-27T16:29:21.767Z,19.90
2023-04-27T16:31:54.386Z,19.75
2023-04-27T16:34:28.027Z,19.69
2023-04-27T16:37:01.379Z,19.60
2023-04-27T16:39:31.252Z,19.53
2023-04-27T16:42:01.145Z,19.37
2023-04-27T16:44:31.175Z,19.36
2023-04-27T16:47:01.174Z,19.36
2023-04-27T16:49:34.339Z,19.35
2023-04-27T16:52:04.731Z,19.31
2023-04-27T16:54:34.712Z,19.27
2023-04-27T16:57:04.824Z,19.17
2023-04-27T16:59:34.828Z,19.10
2023-04-27T17:02:17.004Z,19.09
2023-04-27T17:04:56.667Z,19.01
2023-04-27T17:07:28.730Z,18.91
2023-04-27T17:09:59.239Z,18.79
2023-04-27T17:12:29.224Z,18.67
2023-04-27T17:14:59.263Z,18.61
2023-04-27T17:17:29.219Z,18.57
2023-04-27T17:20:01.979Z,18.57
2023-04-27T17:22:33.180Z,18.43
2023-04-27T17:25:03.318Z,18.36
2023-04-27T17:27:33.388Z,18.28
2023-04-27T17:30:03.319Z,18.26
2023-04-27T17:32:33.335Z,18.17
2023-04-27T17:35:06.665Z,18.09
2023-04-27T17:37:36.561Z,18.02
2023-04-27T17:40:08.109Z,18.00
2023-04-27T17:42:38.075Z,17.99
2023-04-27T17:45:09.064Z,17.95
2023-04-27T17:47:39.014Z,17.82
2023-04-27T17:50:15.028Z,17.77
2023-04-27T17:52:44.997Z,17.78
2023-04-27T17:55:14.938Z,17.65
2023-04-27T17:57:44.844Z,17.56
2023-04-27T18:00:18.270Z,17.50
2023-04-27T18:02:50.068Z,17.45
2023-04-27T18:05:22.753Z,17.34
2023-04-27T18:07:52.643Z,17.36
2023-04-27T18:10:24.643Z,17.08
2023-04-27T18:12:54.592Z,17.06
2023-04-27T18:15:24.575Z,16.92
2023-04-27T18:17:55.519Z,16.73
2023-04-27T18:20:28.166Z,16.73
2023-04-27T18:22:58.003Z,16.81
2023-04-27T18:25:27.838Z,16.87
2023-04-27T18:27:58.113Z,16.84
2023-04-27T18:30:30.029Z,16.74
2023-04-27T18:33:00.242Z,16.62
2023-04-27T18:35:32.876Z,16.51
2023-04-27T18:38:03.679Z,16.43
2023-04-27T18:40:36.269Z,16.40
2023-04-27T18:43:06.477Z,16.37
2023-04-27T18:45:37.074Z,16.26
2023-04-27T18:48:07.901Z,16.21
2023-04-27T18:50:40.749Z,16.15
2023-04-27T18:53:11.609Z,16.10
2023-04-27T18:55:42.298Z,16.04
2023-04-27T18:58:12.360Z,15.96
2023-04-27T19:00:42.287Z,15.93
2023-04-27T19:03:12.594Z,15.94
2023-04-27T19:05:45.759Z,15.87
2023-04-27T19:08:15.882Z,15.77
2023-04-27T19:10:45.882Z,15.74
2023-04-27T19:13:16.098Z,15.64
2023-04-27T19:15:46.081Z,15.63
2023-04-27T19:18:16.083Z,15.59
2023-04-27T19:20:49.593Z,15.59
2023-04-27T19:23:20.203Z,15.52
2023-04-27T19:25:50.693Z,15.51
2023-04-27T19:28:23.609Z,15.46
2023-04-27T19:30:55.481Z,15.44
2023-04-27T19:33:25.417Z,15.34
2023-04-27T19:35:58.709Z,15.30
2023-04-27T19:38:28.640Z,15.24
2023-04-27T19:40:58.579Z,15.17
2023-04-27T19:43:29.424Z,15.15
2023-04-27T19:45:59.346Z,15.08
2023-04-27T19:48:29.278Z,15.01
2023-04-27T19:51:01.974Z,14.98
2023-04-27T19:53:31.856Z,14.97
2023-04-27T19:56:01.664Z,14.96
2023-04-27T19:58:34.859Z,14.98
2023-04-27T20:01:05.077Z,14.96
2023-04-27T20:03:35.759Z,14.94
2023-04-27T20:06:10.476Z,14.88
2023-04-27T20:08:40.532Z,14.83
2023-04-27T20:11:10.610Z,14.79
2023-04-27T20:13:40.515Z,14.74
2023-04-27T20:16:10.442Z,14.70
2023-04-27T20:18:40.372Z,14.61
2023-04-27T20:21:12.959Z,14.56
2023-04-27T20:23:43.109Z,14.52
2023-04-27T20:26:13.004Z,14.48
2023-04-27T20:28:42.904Z,14.43
2023-04-27T20:31:12.920Z,14.38
2023-04-27T20:33:42.839Z,14.31
2023-04-27T20:36:18.302Z,14.30
2023-04-27T20:38:49.096Z,14.31
2023-04-27T20:41:19.004Z,14.28
2023-04-27T20:43:49.028Z,14.27
2023-04-27T20:46:20.752Z,14.24
2023-04-27T20:48:51.037Z,14.17
2023-04-27T20:51:24.202Z,14.17
2023-04-27T20:53:54.054Z,14.18
2023-04-27T20:56:23.980Z,14.14
2023-04-27T20:58:53.791Z,14.12
2023-04-27T21:01:23.904Z,14.15
2023-04-27T21:03:54.162Z,14.19
2023-04-27T21:06:26.728Z,14.16
2023-04-27T21:08:57.730Z,14.16
2023-04-27T21:11:27.898Z,14.16
2023-04-27T21:13:57.753Z,14.10
2023-04-27T21:16:27.720Z,14.01
2023-04-27T21:18:57.924Z,13.99
2023-04-27T21:21:30.450Z,13.95
2023-04-27T21:24:07.348Z,13.90
2023-04-27T21:26:37.981Z,13.92
2023-04-27T21:29:08.649Z,13.94
2023-04-27T21:31:40.131Z,13.95
2023-04-27T21:34:10.403Z,13.96
2023-04-27T21:36:43.210Z,13.97
2023-04-27T21:39:13.266Z,14.00
2023-04-27T21:41:43.246Z,13.95
2023-04-27T21:44:13.350Z,13.93
2023-04-27T21:46:43.658Z,13.91
2023-04-27T21:49:13.664Z,13.85
2023-04-27T21:51:46.181Z,13.81
2023-04-27T21:54:16.571Z,13.77
2023-04-27T21:56:46.610Z,13.76
2023-04-27T21:59:16.726Z,13.75
2023-04-27T22:01:46.625Z,13.74
2023-04-27T22:04:17.098Z,13.73
2023-04-27T22:06:49.939Z,13.69
2023-04-27T22:09:20.196Z,13.64
2023-04-27T22:11:50.225Z,13.63
2023-04-27T22:14:20.171Z,13.62
2023-04-27T22:16:56.712Z,13.61
2023-04-27T22:19:26.966Z,13.60
2023-04-27T22:22:00.163Z,13.56
2023-04-27T22:24:30.205Z,13.54
2023-04-27T22:27:00.045Z,13.46
2023-04-27T22:29:31.633Z,13.44
2023-04-27T22:32:01.985Z,13.39
2023-04-27T22:34:32.190Z,13.39
2023-04-27T22:37:05.164Z,13.38
2023-04-27T22:39:35.390Z,13.36
2023-04-27T22:42:05.409Z,13.33
2023-04-27T22:44:35.638Z,13.32
2023-04-27T22:47:06.497Z,13.30
2023-04-27T22:49:37.505Z,13.28
2023-04-27T22:52:10.736Z,13.24
2023-04-27T22:54:40.912Z,13.21
2023-04-27T22:57:10.783Z,13.21
2023-04-27T22:59:41.061Z,13.21
2023-04-27T23:02:11.351Z,13.20
2023-04-27T23:04:41.411Z,13.18
2023-04-27T23:07:17.674Z,13.18
2023-04-27T23:09:48.387Z,13.19
2023-04-27T23:12:18.318Z,13.18
2023-04-27T23:14:48.478Z,13.18
2023-04-27T23:17:18.384Z,13.19
2023-04-27T23:19:49.006Z,13.19
2023-04-27T23:22:21.608Z,13.14
2023-04-27T23:24:52.038Z,13.10
2023-04-27T23:27:22.782Z,13.11
2023-04-27T23:29:52.948Z,13.13
2023-04-27T23:32:23.345Z,13.11
2023-04-27T23:34:56.180Z,13.09
2023-04-27T23:37:29.083Z,13.08
2023-04-27T23:39:58.902Z,13.12
2023-04-27T23:42:28.807Z,13.13
2023-04-27T23:44:58.682Z,13.14
2023-04-27T23:47:28.575Z,13.18
2023-04-27T23:50:01.387Z,13.22
2023-04-27T23:52:33.902Z,13.25
2023-04-27T23:55:03.942Z,13.26
2023-04-27T23:57:33.831Z,13.27
